Flight Track Log - Related Links

Times and Time Zones

All times are in EDT time to prevent confusion due to time zone crossing. See the N273SK flight status page for this flight to view local times or setup timezone preferences in your user account.

Time Position Orientation Groundspeed Altitude Reporting Facility
EDT Latitude Longitude Course Direction KTS MPH feet Rate Location/Type
Fri 03:38:48 PM 35.0500 -89.9667 33° Northeast 146 168 700  Level KMEM
Fri 03:39:18 PM 35.0667 -89.9667 360° North 157 181 1,600 1,733 Climbing KMEM
Fri 03:40:18 PM 35.1333 -89.9667 360° North 233 268 3,300 2,050 Climbing KMEM
Fri 03:41:18 PM 35.2000 -89.9500 12° North 254 292 5,700 2,500 Climbing KMEM
Fri 03:42:00 PM 35.1896 -89.7500 North  Level FlightAware Approximate
Fri 03:42:18 PM 35.2667 -89.9000 31° Northeast 270 311 8,300  Level KMEM
Fri 03:43:00 PM 35.3127 -89.7566 33° Northeast  Level FlightAware Approximate
Fri 03:43:41 PM 35.3503 -89.8175 39° Northeast 304 350 10,400  Level Memphis Center
Fri 03:44:00 PM 35.4194 -89.6712 33° Northeast  Level FlightAware Approximate
Fri 03:44:41 PM 35.4292 -89.7406 38° Northeast 340 391 11,100  Level Memphis Center
Fri 03:45:41 PM 35.5103 -89.6583 40° Northeast 360 414 12,700 1,450 Climbing Memphis Center
Fri 03:46:41 PM 35.5911 -89.5758 40° Northeast 372 428 14,000 1,250 Climbing Memphis Center
Fri 03:47:41 PM 35.6781 -89.4958 37° Northeast 377 434 15,200 1,050 Climbing Memphis Center
Fri 03:48:41 PM 35.7589 -89.4336 32° Northeast 377 434 16,100 900 Climbing Memphis Center
Fri 03:49:41 PM 35.8564 -89.3606 31° Northeast 389 448 17,000 900 Climbing Memphis Center
Fri 03:50:41 PM 35.9558 -89.2825 32° Northeast 402 463 17,900 900 Climbing Memphis Center
Fri 03:51:41 PM 36.0614 -89.2067 30° Northeast 421 484 18,800 900 Climbing Memphis Center
Fri 03:52:41 PM 36.1650 -89.1256 32° Northeast 433 498 19,700 850 Climbing Memphis Center
Fri 03:53:41 PM 36.2767 -89.0442 30° Northeast 445 512 20,500 850 Climbing Memphis Center
Fri 03:54:41 PM 36.3903 -88.9597 31° Northeast 456 525 21,400 850 Climbing Memphis Center
Fri 03:55:41 PM 36.5042 -88.8725 32° Northeast 469 540 22,200 800 Climbing Memphis Center
Fri 03:56:41 PM 36.6217 -88.7850 31° Northeast 474 545 23,000 800 Climbing Memphis Center
Fri 03:57:41 PM 36.7394 -88.6922 32° Northeast 485 558 23,800 900 Climbing Memphis Center
Fri 03:58:41 PM 36.8611 -88.6014 31° Northeast 496 571 24,800 600 Climbing Memphis Center
Fri 03:59:41 PM 36.9786 -88.5131 31° Northeast 496 571 25,000 100 Climbing Memphis Center
Fri 04:00:41 PM 37.0981 -88.4219 31° Northeast 496 571 25,000  Level Memphis Center
Fri 04:01:41 PM 37.2194 -88.3303 31° Northeast 496 571 25,000  Level Memphis Center
Fri 04:03:56 PM 37.4831 -88.1150 33° Northeast 499 574 25,000  Level Indianapolis Center
Fri 04:04:00 PM 37.3193 -88.2342 33° Northeast  Level FlightAware Approximate
Fri 04:04:58 PM 37.6006 -88.0211 32° Northeast 496 571 25,000  Level Indianapolis Center
Fri 04:06:00 PM 37.7208 -87.9269 32° Northeast 501 577 25,000  Level Indianapolis Center
Fri 04:07:01 PM 37.8472 -87.8267 32° Northeast 507 583 25,000  Level Indianapolis Center
Fri 04:08:03 PM 37.9686 -87.7314 32° Northeast 510 587 25,000  Level Indianapolis Center
Fri 04:09:05 PM 38.0931 -87.6425 29° Northeast 508 585 25,000  Level Indianapolis Center
Fri 04:10:07 PM 38.2178 -87.5525 30° Northeast 510 587 25,000  Level Indianapolis Center
Fri 04:11:09 PM 38.3436 -87.4619 29° Northeast 511 588 25,000  Level Indianapolis Center
Fri 04:12:11 PM 38.4686 -87.3697 30° Northeast 510 587 25,000  Level Indianapolis Center
Fri 04:13:12 PM 38.5942 -87.2786 30° Northeast 508 585 25,000  Level Indianapolis Center
Fri 04:14:14 PM 38.7439 -87.1689 30° Northeast 509 586 25,000 -194 Level Indianapolis Center
Fri 04:15:16 PM 38.8686 -87.0775 30° Northeast 510 587 24,600 -1,355 Descending Indianapolis Center
Fri 04:16:18 PM 38.9883 -86.9889 30° Northeast 498 573 22,200 -2,177 Descending Indianapolis Center
Fri 04:17:20 PM 39.0958 -86.9067 31° Northeast 456 525 20,100 -2,081 Descending Indianapolis Center
Fri 04:18:22 PM 39.1961 -86.8325 30° Northeast 430 495 17,900 -2,032 Descending Indianapolis Center
Fri 04:19:24 PM 39.2914 -86.7619 30° Northeast 411 473 15,900 -1,839 Descending Indianapolis Center
Fri 04:20:26 PM 39.3844 -86.6914 30° Northeast 397 457 14,100 -1,512 Descending Indianapolis Center
Fri 04:21:27 PM 39.4592 -86.6106 40° Northeast 373 429 12,800 -1,463 Descending Indianapolis Center
Fri 04:22:29 PM 39.5081 -86.5036 59° Northeast 355 409 11,100 -1,790 Descending Indianapolis Center
Fri 04:23:31 PM 39.5628 -86.3822 60° Northeast 337 388 9,100 -1,597 Descending Indianapolis Center
Fri 04:24:33 PM 39.6069 -86.2883 59° Northeast 321 369 7,800 -1,016 Descending Indianapolis Center
Fri 04:25:35 PM 39.6556 -86.2061 52° Northeast 307 353 7,000 -774 Descending Indianapolis Center
Fri 04:26:37 PM 39.7081 -86.1303 48° Northeast 285 328 6,200 -1,545 Descending Indianapolis Center
Fri 04:27:47 PM 39.7667 -86.0500 46° Northeast 261 300 3,600 -1,477 Descending Indianapolis TRACON
Fri 04:28:47 PM 39.8167 -86.0667 346° North 189 217 3,000 -300 Descending Indianapolis TRACON
Fri 04:29:47 PM 39.8333 -86.1167 293° West 171 197 3,000  Level Indianapolis TRACON

Login

Don't have an account? Register now (free) for customized features, flight alerts, and more!